Time,TemperatureF,DewpointF,PressureIn,WindDirection,WindDirectionDegrees,WindSpeedMPH,WindSpeedGustMPH,Humidity,HourlyPrecipIn,Conditions,Clouds,dailyrainin,SoftwareType,DateUTC
2013-01-26 00:00:00,16.4,7.2,30.03,NW,323,1.9,7.9,66,0.00,,,0.00,WUHU216PEETBRO,2013-01-26 05:00:00,
2013-01-26 00:01:00,17.1,8.3,30.03,NNW,337,5.3,7.9,68,0.00,,,0.00,WUHU216PEETBRO,2013-01-26 05:01:00,
2013-01-26 00:06:00,17.0,8.7,30.03,NNW,335,6.7,7.9,69,0.00,,,0.00,WUHU216PEETBRO,2013-01-26 05:06:00,
2013-01-26 00:11:00,15.9,8.6,30.03,NNW,327,2.1,6.8,72,0.00,,,0.00,WUHU216PEETBRO,2013-01-26 05:11:00,
2013-01-26 00:16:00,15.5,9.7,30.03,NNW,337,5.5,6.7,78,0.00,,,0.00,WUHU216PEETBRO,2013-01-26 05:16:00,
2013-01-26 00:21:00,16.0,11.1,30.02,NNW,331,3.2,5.7,81,0.00,,,0.00,WUHU216PEETBRO,2013-01-26 05:21:00,
2013-01-26 00:26:00,15.7,10.9,30.02,North,8,1.8,5.4,81,0.00,,,0.00,WUHU216PEETBRO,2013-01-26 05:26:00,
2013-01-26 00:31:00,15.2,10.9,30.02,NW,324,2.7,6.6,83,0.00,,,0.00,WUHU216PEETBRO,2013-01-26 05:31:00,
2013-01-26 00:36:00,14.9,11.1,30.02,NNW,344,2.5,6.6,85,0.00,,,0.00,WUHU216PEETBRO,2013-01-26 05:36:00,
2013-01-26 00:41:00,15.1,11.6,30.02,NNW,340,3.2,5.2,86,0.00,,,0.00,WUHU216PEETBRO,2013-01-26 05:41:00,
2013-01-26 00:46:00,15.1,11.9,30.02,NNW,341,1.9,4.2,87,0.00,,,0.00,WUHU216PEETBRO,2013-01-26 05:46:00,
2013-01-26 00:51:00,14.9,11.7,30.02,NNW,335,1.6,4.2,87,0.00,,,0.00,WUHU216PEETBRO,2013-01-26 05:51:00,
2013-01-26 00:56:00,14.4,11.3,30.01,NNW,327,0.0,4.0,87,0.00,,,0.00,WUHU216PEETBRO,2013-01-26 05:56:00,
2013-01-26 01:01:00,15.0,11.9,30.01,NNW,327,0.0,4.0,87,0.00,,,0.00,WUHU216PEETBRO,2013-01-26 06:01:00,
2013-01-26 01:06:00,15.1,12.1,30.01,NNW,327,0.0,0.0,88,0.00,,,0.00,WUHU216PEETBRO,2013-01-26 06:06:00,
2013-01-26 01:11:00,14.7,11.7,30.01,NNW,327,0.0,0.0,88,0.00,,,0.00,WUHU216PEETBRO,2013-01-26 06:11:00,
2013-01-26 01:16:00,14.2,11.3,30.01,NNW,327,0.0,0.0,88,0.00,,,0.00,WUHU216PEETBRO,2013-01-26 06:16:00,
2013-01-26 01:21:00,14.9,12.1,30.01,NNW,327,0.0,0.0,89,0.00,,,0.00,WUHU216PEETBRO,2013-01-26 06:21:00,
2013-01-26 01:26:00,15.0,12.2,30.01,NNW,327,0.0,0.0,89,0.00,,,0.00,WUHU216PEETBRO,2013-01-26 06:26:00,
2013-01-26 01:31:00,14.5,11.8,30.01,NW,323,0.9,4.3,89,0.00,,,0.00,WUHU216PEETBRO,2013-01-26 06:31:00,
2013-01-26 01:36:00,15.1,12.6,30.01,NNW,331,1.1,4.8,90,0.00,,,0.00,WUHU216PEETBRO,2013-01-26 06:36:00,
2013-01-26 01:41:00,14.5,12.0,30.01,North,355,0.0,4.8,90,0.00,,,0.00,WUHU216PEETBRO,2013-01-26 06:41:00,
2013-01-26 01:46:00,14.2,11.7,30.01,NW,314,0.4,3.5,90,0.00,,,0.00,WUHU216PEETBRO,2013-01-26 06:46:00,
2013-01-26 01:51:00,14.1,11.7,30.01,North,358,1.0,3.2,90,0.00,,,0.00,WUHU216PEETBRO,2013-01-26 06:51:00,
2013-01-26 01:56:00,14.5,12.1,30.00,NNW,334,0.0,2.8,90,0.00,,,0.00,WUHU216PEETBRO,2013-01-26 06:56:00,
2013-01-26 02:01:00,14.2,11.8,30.00,North,357,0.0,2.6,90,0.00,,,0.00,WUHU216PEETBRO,2013-01-26 07:01:00,
2013-01-26 02:06:00,14.3,12.0,30.00,North,357,0.0,1.8,91,0.00,,,0.00,WUHU216PEETBRO,2013-01-26 07:06:00,
2013-01-26 02:11:00,14.2,12.0,30.00,NNW,340,2.5,4.5,91,0.00,,,0.00,WUHU216PEETBRO,2013-01-26 07:11:00,
2013-01-26 02:16:00,13.4,11.2,30.00,North,350,0.0,4.5,91,0.00,,,0.00,WUHU216PEETBRO,2013-01-26 07:16:00,
2013-01-26 02:21:00,14.3,12.2,29.99,North,2,0.0,3.9,92,0.00,,,0.00,WUHU216PEETBRO,2013-01-26 07:21:00,
2013-01-26 02:26:00,14.0,11.9,29.99,North,2,1.9,5.4,92,0.00,,,0.00,WUHU216PEETBRO,2013-01-26 07:26:00,
2013-01-26 02:31:00,14.5,12.4,29.99,NNW,345,4.3,5.4,91,0.00,,,0.00,WUHU216PEETBRO,2013-01-26 07:31:00,
2013-01-26 02:36:00,14.5,12.5,29.99,NNW,341,1.6,6.3,92,0.00,,,0.00,WUHU216PEETBRO,2013-01-26 07:36:00,
2013-01-26 02:41:00,14.1,12.2,29.99,North,355,0.8,6.4,92,0.00,,,0.00,WUHU216PEETBRO,2013-01-26 07:41:00,
2013-01-26 02:46:00,14.1,12.1,29.98,NNW,334,0.4,6.4,92,0.00,,,0.00,WUHU216PEETBRO,2013-01-26 07:46:00,
2013-01-26 02:51:00,14.0,11.9,29.98,North,8,2.5,5.5,92,0.00,,,0.00,WUHU216PEETBRO,2013-01-26 07:51:00,
2013-01-26 02:56:00,13.5,11.5,29.98,NNW,335,4.9,6.0,92,0.00,,,0.00,WUHU216PEETBRO,2013-01-26 07:56:00,
2013-01-26 03:01:00,13.2,11.2,29.98,NNW,328,0.0,6.2,92,0.00,,,0.00,WUHU216PEETBRO,2013-01-26 08:01:00,
2013-01-26 03:06:00,13.3,11.4,29.98,North,355,2.7,7.1,92,0.00,,,0.00,WUHU216PEETBRO,2013-01-26 08:06:00,
2013-01-26 03:11:00,13.6,11.7,29.98,North,355,6.0,8.5,92,0.00,,,0.00,WUHU216PEETBRO,2013-01-26 08:11:00,
2013-01-26 03:16:00,13.4,11.4,29.98,North,2,2.7,8.5,92,0.00,,,0.00,WUHU216PEETBRO,2013-01-26 08:16:00,
2013-01-26 03:21:00,12.9,10.9,29.98,NNW,347,1.8,7.4,92,0.00,,,0.00,WUHU216PEETBRO,2013-01-26 08:21:00,
2013-01-26 03:26:00,13.1,11.1,29.98,North,359,0.5,7.4,92,0.00,,,0.00,WUHU216PEETBRO,2013-01-26 08:26:00,
2013-01-26 03:31:00,12.9,11.1,29.97,NNE,25,2.1,6.3,93,0.00,,,0.00,WUHU216PEETBRO,2013-01-26 08:31:00,
2013-01-26 03:36:00,12.9,11.0,29.97,North,349,3.2,7.4,92,0.00,,,0.00,WUHU216PEETBRO,2013-01-26 08:36:00,
2013-01-26 03:41:00,11.6,9.7,29.98,North,349,3.7,7.4,92,0.00,,,0.00,WUHU216PEETBRO,2013-01-26 08:41:00,
2013-01-26 03:46:00,12.3,10.6,29.98,NNW,340,4.2,6.5,93,0.00,,,0.00,WUHU216PEETBRO,2013-01-26 08:46:00,
2013-01-26 03:51:00,12.3,10.5,29.98,NNW,347,3.8,6.9,93,0.00,,,0.00,WUHU216PEETBRO,2013-01-26 08:51:00,
2013-01-26 03:56:00,11.9,10.1,29.97,North,357,6.1,6.9,93,0.00,,,0.00,WUHU216PEETBRO,2013-01-26 08:56:00,
2013-01-26 04:03:00,12.1,10.3,29.97,NNW,342,5.9,7.3,92,0.00,,,0.00,WUHU216PEETBRO,2013-01-26 09:03:00,
2013-01-26 04:08:00,11.5,9.7,29.97,NNW,342,1.7,7.3,93,0.00,,,0.00,WUHU216PEETBRO,2013-01-26 09:08:00,
2013-01-26 04:13:00,11.5,9.9,29.97,North,357,3.4,6.8,93,0.00,,,0.00,WUHU216PEETBRO,2013-01-26 09:13:00,
2013-01-26 04:18:00,12.1,10.5,29.97,North,357,0.0,7.2,93,0.00,,,0.00,WUHU216PEETBRO,2013-01-26 09:18:00,
2013-01-26 04:23:00,11.4,9.6,29.98,NNW,340,0.9,7.2,93,0.00,,,0.00,WUHU216PEETBRO,2013-01-26 09:23:00,
2013-01-26 04:28:00,11.4,9.6,29.98,NNW,330,1.7,6.1,93,0.00,,,0.00,WUHU216PEETBRO,2013-01-26 09:28:00,
2013-01-26 04:33:00,10.8,9.1,29.98,NNW,338,2.7,6.1,93,0.00,,,0.00,WUHU216PEETBRO,2013-01-26 09:33:00,
2013-01-26 04:38:00,10.7,9.0,29.97,NNE,16,1.2,5.8,93,0.00,,,0.00,WUHU216PEETBRO,2013-01-26 09:38:00,
2013-01-26 04:43:00,10.3,8.6,29.97,North,357,4.8,6.0,93,0.00,,,0.00,WUHU216PEETBRO,2013-01-26 09:43:00,
2013-01-26 04:48:00,10.1,8.6,29.97,NNW,338,3.9,6.5,94,0.00,,,0.00,WUHU216PEETBRO,2013-01-26 09:48:00,
2013-01-26 04:53:00,10.5,8.9,29.98,NNW,341,2.4,8.1,94,0.00,,,0.00,WUHU216PEETBRO,2013-01-26 09:53:00,
2013-01-26 04:58:00,9.8,8.3,29.97,NNW,344,4.3,8.1,94,0.00,,,0.00,WUHU216PEETBRO,2013-01-26 09:58:00,
2013-01-26 05:03:00,10.3,8.9,29.97,North,1,4.8,7.7,94,0.00,,,0.00,WUHU216PEETBRO,2013-01-26 10:03:00,
2013-01-26 05:08:00,10.5,9.1,29.97,NNW,345,2.4,7.1,94,0.00,,,0.00,WUHU216PEETBRO,2013-01-26 10:08:00,
2013-01-26 05:13:00,10.4,9.1,29.97,NNW,340,1.2,7.1,94,0.00,,,0.00,WUHU216PEETBRO,2013-01-26 10:13:00,
2013-01-26 05:18:00,10.4,9.1,29.97,NNW,341,5.4,6.9,94,0.00,,,0.00,WUHU216PEETBRO,2013-01-26 10:18:00,
2013-01-26 05:23:00,9.6,8.3,29.98,NNW,333,1.1,6.9,95,0.00,,,0.00,WUHU216PEETBRO,2013-01-26 10:23:00,
2013-01-26 05:28:00,10.1,8.8,29.98,NW,325,3.5,7.3,95,0.00,,,0.00,WUHU216PEETBRO,2013-01-26 10:28:00,
2013-01-26 05:33:00,10.2,9.0,29.98,North,355,2.8,7.3,95,0.00,,,0.00,WUHU216PEETBRO,2013-01-26 10:33:00,
2013-01-26 05:38:00,10.3,9.0,29.98,NNW,331,4.8,9.0,95,0.00,,,0.00,WUHU216PEETBRO,2013-01-26 10:38:00,
2013-01-26 05:43:00,9.2,7.9,29.99,North,352,1.4,9.0,94,0.00,,,0.00,WUHU216PEETBRO,2013-01-26 10:43:00,
2013-01-26 05:48:00,9.6,8.2,29.98,North,1,2.1,8.5,94,0.00,,,0.00,WUHU216PEETBRO,2013-01-26 10:48:00,
2013-01-26 05:53:00,8.8,7.5,29.98,NNW,341,0.7,8.5,94,0.00,,,0.00,WUHU216PEETBRO,2013-01-26 10:53:00,
2013-01-26 05:58:00,9.6,8.2,29.98,NNW,328,3.0,6.3,94,0.00,,,0.00,WUHU216PEETBRO,2013-01-26 10:58:00,
2013-01-26 06:03:00,8.9,7.5,29.99,NNW,333,1.2,6.2,94,0.00,,,0.00,WUHU216PEETBRO,2013-01-26 11:03:00,
2013-01-26 06:08:00,8.6,7.3,29.99,NNW,337,2.5,6.0,94,0.00,,,0.00,WUHU216PEETBRO,2013-01-26 11:08:00,
2013-01-26 06:13:00,9.2,7.9,29.99,NNW,338,2.3,6.2,95,0.00,,,0.00,WUHU216PEETBRO,2013-01-26 11:13:00,
2013-01-26 06:18:00,8.7,7.4,30.00,North,9,3.0,6.8,95,0.00,,,0.00,WUHU216PEETBRO,2013-01-26 11:18:00,
2013-01-26 06:23:00,9.4,8.1,30.00,NNW,341,3.7,6.8,95,0.00,,,0.00,WUHU216PEETBRO,2013-01-26 11:23:00,
2013-01-26 06:28:00,8.9,7.5,30.00,NNW,327,0.0,6.7,94,0.00,,,0.00,WUHU216PEETBRO,2013-01-26 11:28:00,
2013-01-26 06:33:00,9.1,7.6,30.00,NNW,342,3.4,6.7,94,0.00,,,0.00,WUHU216PEETBRO,2013-01-26 11:33:00,
2013-01-26 06:38:00,7.9,6.4,30.00,NNW,344,1.0,7.3,94,0.00,,,0.00,WUHU216PEETBRO,2013-01-26 11:38:00,
2013-01-26 06:43:00,8.9,7.5,30.00,NNW,341,4.2,7.3,94,0.00,,,0.00,WUHU216PEETBRO,2013-01-26 11:43:00,
2013-01-26 06:48:00,8.4,6.9,30.00,North,349,3.1,6.5,94,0.00,,,0.00,WUHU216PEETBRO,2013-01-26 11:48:00,
2013-01-26 06:53:00,8.1,6.6,30.00,North,351,2.8,7.4,94,0.00,,,0.00,WUHU216PEETBRO,2013-01-26 11:53:00,
2013-01-26 06:58:00,8.0,6.4,30.01,North,359,1.1,7.4,93,0.00,,,0.00,WUHU216PEETBRO,2013-01-26 11:58:00,
2013-01-26 07:03:00,8.5,7.0,30.01,NW,324,0.0,6.6,94,0.00,,,0.00,WUHU216PEETBRO,2013-01-26 12:03:00,
2013-01-26 07:08:00,8.4,7.0,30.01,NW,324,0.0,6.3,94,0.00,,,0.00,WUHU216PEETBRO,2013-01-26 12:08:00,
2013-01-26 07:13:00,8.2,6.6,30.01,NW,324,0.0,0.0,93,0.00,,,0.00,WUHU216PEETBRO,2013-01-26 12:13:00,
2013-01-26 07:18:00,7.3,5.8,30.01,North,352,4.5,4.5,93,0.00,,,0.00,WUHU216PEETBRO,2013-01-26 12:18:00,
2013-01-26 07:23:00,7.6,6.0,30.01,NNW,341,2.0,5.5,93,0.00,,,0.00,WUHU216PEETBRO,2013-01-26 12:23:00,
2013-01-26 07:28:00,7.7,6.0,30.01,NW,324,0.0,6.4,93,0.00,,,0.00,WUHU216PEETBRO,2013-01-26 12:28:00,
2013-01-26 07:33:00,7.8,6.1,30.02,North,5,2.7,6.4,93,0.00,,,0.00,WUHU216PEETBRO,2013-01-26 12:33:00,
2013-01-26 07:38:00,7.8,6.0,30.02,North,352,1.1,4.9,92,0.00,,,0.00,WUHU216PEETBRO,2013-01-26 12:38:00,
2013-01-26 07:43:00,7.8,5.9,30.02,NW,318,0.0,5.3,92,0.00,,,0.00,WUHU216PEETBRO,2013-01-26 12:43:00,
2013-01-26 07:48:00,7.8,5.9,30.02,NNW,344,2.2,5.3,92,0.00,,,0.00,WUHU216PEETBRO,2013-01-26 12:48:00,
2013-01-26 07:53:00,7.8,5.8,30.02,NW,321,0.0,5.0,92,0.00,,,0.00,WUHU216PEETBRO,2013-01-26 12:53:00,
2013-01-26 07:58:00,8.1,6.0,30.02,North,349,4.5,7.3,91,0.00,,,0.00,WUHU216PEETBRO,2013-01-26 12:58:00,
2013-01-26 08:03:00,9.3,6.8,30.02,NNW,335,2.8,7.3,90,0.00,,,0.00,WUHU216PEETBRO,2013-01-26 13:03:00,
2013-01-26 08:09:00,9.3,6.0,30.02,NNW,335,2.5,8.4,86,0.00,,,0.00,WUHU216PEETBRO,2013-01-26 13:09:00,
2013-01-26 08:14:00,10.2,6.4,30.02,North,349,2.9,10.7,85,0.00,,,0.00,WUHU216PEETBRO,2013-01-26 13:14:00,
2013-01-26 08:19:00,9.4,5.6,30.02,North,349,6.7,10.7,85,0.00,,,0.00,WUHU216PEETBRO,2013-01-26 13:19:00,
2013-01-26 08:24:00,10.4,6.2,30.02,NNW,345,2.7,8.3,83,0.00,,,0.00,WUHU216PEETBRO,2013-01-26 13:24:00,
2013-01-26 08:29:00,10.3,6.1,30.02,NNW,338,2.7,8.3,83,0.00,,,0.00,WUHU216PEETBRO,2013-01-26 13:29:00,
2013-01-26 08:34:00,10.6,6.4,30.03,NNW,340,2.2,8.1,83,0.00,,,0.00,WUHU216PEETBRO,2013-01-26 13:34:00,
2013-01-26 08:39:00,10.8,5.9,30.03,NNW,334,3.6,9.8,80,0.00,,,0.00,WUHU216PEETBRO,2013-01-26 13:39:00,
2013-01-26 08:44:00,10.9,5.6,30.03,WSW,252,0.0,9.8,79,0.00,,,0.00,WUHU216PEETBRO,2013-01-26 13:44:00,
2013-01-26 08:49:00,11.7,6.1,30.03,North,354,7.1,14.0,78,0.00,,,0.00,WUHU216PEETBRO,2013-01-26 13:49:00,
2013-01-26 08:54:00,11.3,5.1,30.03,NNW,344,7.3,14.0,76,0.00,,,0.00,WUHU216PEETBRO,2013-01-26 13:54:00,
2013-01-26 08:59:00,12.4,6.2,30.03,NNW,344,7.1,12.9,76,0.00,,,0.00,WUHU216PEETBRO,2013-01-26 13:59:00,
2013-01-26 09:04:00,12.3,6.1,30.03,NNW,341,5.2,12.9,76,0.00,,,0.00,WUHU216PEETBRO,2013-01-26 14:04:00,
2013-01-26 09:09:00,12.3,5.6,30.04,North,351,2.7,12.1,74,0.00,,,0.00,WUHU216PEETBRO,2013-01-26 14:09:00,
2013-01-26 09:14:00,12.6,6.3,30.03,NW,324,5.0,11.9,75,0.00,,,0.00,WUHU216PEETBRO,2013-01-26 14:14:00,
2013-01-26 09:19:00,12.8,5.5,30.03,NNW,335,3.6,11.6,72,0.00,,,0.00,WUHU216PEETBRO,2013-01-26 14:19:00,
2013-01-26 09:24:00,13.3,5.8,30.03,NNW,335,4.5,13.4,71,0.00,,,0.00,WUHU216PEETBRO,2013-01-26 14:24:00,
2013-01-26 09:29:00,13.8,6.4,30.03,NNW,338,5.2,13.4,72,0.00,,,0.00,WUHU216PEETBRO,2013-01-26 14:29:00,
2013-01-26 09:34:00,13.0,4.8,30.04,North,349,4.4,11.8,69,0.00,,,0.00,WUHU216PEETBRO,2013-01-26 14:34:00,
2013-01-26 09:39:00,13.8,5.8,30.03,NNW,330,3.9,11.8,70,0.00,,,0.00,WUHU216PEETBRO,2013-01-26 14:39:00,
2013-01-26 09:44:00,13.3,5.0,30.04,NNW,333,7.3,11.7,69,0.00,,,0.00,WUHU216PEETBRO,2013-01-26 14:44:00,
2013-01-26 09:49:00,14.0,5.9,30.03,NW,324,2.8,12.5,70,0.00,,,0.00,WUHU216PEETBRO,2013-01-26 14:49:00,
2013-01-26 09:54:00,14.3,6.1,30.03,NNE,21,5.5,12.5,69,0.00,,,0.00,WUHU216PEETBRO,2013-01-26 14:54:00,
2013-01-26 09:59:00,14.6,6.9,30.03,NNW,330,0.0,10.9,71,0.00,,,0.00,WUHU216PEETBRO,2013-01-26 14:59:00,
2013-01-26 10:04:00,14.5,6.4,30.03,NNE,18,4.5,11.6,70,0.00,,,0.00,WUHU216PEETBRO,2013-01-26 15:04:00,
2013-01-26 10:09:00,15.0,7.1,30.03,NNW,331,9.9,12.5,70,0.00,,,0.00,WUHU216PEETBRO,2013-01-26 15:09:00,
2013-01-26 10:14:00,15.0,6.3,30.03,NNE,15,5.2,12.5,68,0.00,,,0.00,WUHU216PEETBRO,2013-01-26 15:14:00,
2013-01-26 10:19:00,15.1,6.0,30.03,NW,318,0.0,15.1,67,0.00,,,0.00,WUHU216PEETBRO,2013-01-26 15:19:00,
2013-01-26 10:24:00,15.7,6.8,30.03,North,1,11.5,15.1,67,0.00,,,0.00,WUHU216PEETBRO,2013-01-26 15:24:00,
2013-01-26 10:29:00,15.8,6.6,30.03,NNW,342,8.3,12.4,66,0.00,,,0.00,WUHU216PEETBRO,2013-01-26 15:29:00,
2013-01-26 10:34:00,15.1,5.6,30.03,North,357,9.4,12.4,65,0.00,,,0.00,WUHU216PEETBRO,2013-01-26 15:34:00,
2013-01-26 10:39:00,16.2,6.6,30.03,NNW,331,5.4,12.2,65,0.00,,,0.00,WUHU216PEETBRO,2013-01-26 15:39:00,
2013-01-26 10:44:00,16.2,6.3,30.03,NNW,345,9.2,10.4,64,0.00,,,0.00,WUHU216PEETBRO,2013-01-26 15:44:00,
2013-01-26 10:49:00,16.4,6.0,30.03,North,349,11.3,12.8,63,0.00,,,0.00,WUHU216PEETBRO,2013-01-26 15:49:00,
2013-01-26 10:54:00,17.0,7.0,30.03,North,2,7.9,12.8,64,0.00,,,0.00,WUHU216PEETBRO,2013-01-26 15:54:00,
2013-01-26 10:59:00,17.0,6.3,30.03,NNW,348,7.3,13.2,62,0.00,,,0.00,WUHU216PEETBRO,2013-01-26 15:59:00,
2013-01-26 11:04:00,17.1,6.6,30.02,WNW,301,0.0,13.2,63,0.00,,,0.00,WUHU216PEETBRO,2013-01-26 16:04:00,
2013-01-26 11:09:00,17.7,7.0,30.02,NNW,334,7.4,14.9,62,0.00,,,0.00,WUHU216PEETBRO,2013-01-26 16:09:00,
2013-01-26 11:14:00,17.5,6.9,30.02,NNW,341,1.5,14.9,63,0.00,,,0.00,WUHU216PEETBRO,2013-01-26 16:14:00,
2013-01-26 11:19:00,17.2,6.2,30.01,North,351,4.0,11.3,61,0.00,,,0.00,WUHU216PEETBRO,2013-01-26 16:19:00,
2013-01-26 11:24:00,17.9,7.1,30.01,North,354,1.3,12.1,62,0.00,,,0.00,WUHU216PEETBRO,2013-01-26 16:24:00,
2013-01-26 11:29:00,18.4,7.6,30.01,NNW,342,9.6,14.5,62,0.00,,,0.00,WUHU216PEETBRO,2013-01-26 16:29:00,
2013-01-26 11:34:00,18.4,6.6,30.01,North,349,2.5,14.5,59,0.00,,,0.00,WUHU216PEETBRO,2013-01-26 16:34:00,
2013-01-26 11:39:00,17.9,6.6,30.01,NNW,348,4.0,13.5,61,0.00,,,0.00,WUHU216PEETBRO,2013-01-26 16:39:00,
2013-01-26 11:44:00,17.7,5.9,30.00,NNW,333,6.6,12.0,59,0.00,,,0.00,WUHU216PEETBRO,2013-01-26 16:44:00,
2013-01-26 11:49:00,18.8,6.9,30.00,NW,324,7.0,13.9,59,0.00,,,0.00,WUHU216PEETBRO,2013-01-26 16:49:00,
2013-01-26 11:54:00,19.2,6.5,30.00,NNW,327,1.2,13.9,57,0.00,,,0.00,WUHU216PEETBRO,2013-01-26 16:54:00,
2013-01-26 11:59:00,18.6,5.9,30.00,NNW,331,2.7,12.9,57,0.00,,,0.00,WUHU216PEETBRO,2013-01-26 16:59:00,
2013-01-26 12:04:00,19.6,6.4,30.00,NW,323,1.5,14.0,56,0.00,,,0.00,WUHU216PEETBRO,2013-01-26 17:04:00,
2013-01-26 12:09:00,19.9,6.6,30.00,NW,323,5.3,14.0,56,0.00,,,0.00,WUHU216PEETBRO,2013-01-26 17:09:00,
2013-01-26 12:14:00,19.7,5.3,30.00,NNW,344,5.7,14.2,53,0.00,,,0.00,WUHU216PEETBRO,2013-01-26 17:14:00,
2013-01-26 12:19:00,19.7,5.5,29.99,WNW,303,0.5,14.2,54,0.00,,,0.00,WUHU216PEETBRO,2013-01-26 17:19:00,
2013-01-26 12:24:00,20.8,6.1,29.99,NW,321,9.9,13.8,52,0.00,,,0.00,WUHU216PEETBRO,2013-01-26 17:24:00,
2013-01-26 12:29:00,21.3,5.1,29.99,NNW,341,6.4,13.8,49,0.00,,,0.00,WUHU216PEETBRO,2013-01-26 17:29:00,
2013-01-26 12:34:00,21.3,4.5,29.99,NW,320,7.0,12.9,48,0.00,,,0.00,WUHU216PEETBRO,2013-01-26 17:34:00,
2013-01-26 12:39:00,21.7,4.4,29.98,NNW,338,6.6,12.9,47,0.00,,,0.00,WUHU216PEETBRO,2013-01-26 17:39:00,
2013-01-26 12:44:00,22.0,4.7,29.98,NNW,328,2.7,14.4,47,0.00,,,0.00,WUHU216PEETBRO,2013-01-26 17:44:00,
2013-01-26 12:49:00,21.6,3.5,29.99,North,355,13.3,17.1,45,0.00,,,0.00,WUHU216PEETBRO,2013-01-26 17:49:00,
2013-01-26 12:54:00,20.9,2.6,29.98,North,2,3.7,17.1,45,0.00,,,0.00,WUHU216PEETBRO,2013-01-26 17:54:00,
2013-01-26 12:59:00,21.7,1.9,29.98,North,349,7.6,15.8,42,0.00,,,0.00,WUHU216PEETBRO,2013-01-26 17:59:00,
2013-01-26 13:04:00,21.6,1.6,29.98,North,349,2.9,15.8,42,0.00,,,0.00,WUHU216PEETBRO,2013-01-26 18:04:00,
2013-01-26 13:09:00,21.3,2.1,29.98,NW,323,3.6,9.5,43,0.00,,,0.00,WUHU216PEETBRO,2013-01-26 18:09:00,
2013-01-26 13:14:00,21.3,3.0,29.98,NNW,341,3.9,12.5,45,0.00,,,0.00,WUHU216PEETBRO,2013-01-26 18:14:00,
2013-01-26 13:19:00,21.3,3.1,29.98,NNW,338,5.9,12.5,45,0.00,,,0.00,WUHU216PEETBRO,2013-01-26 18:19:00,
2013-01-26 13:25:00,21.6,2.4,29.98,North,349,10.6,14.1,43,0.00,,,0.00,WUHU216PEETBRO,2013-01-26 18:25:00,
2013-01-26 13:30:00,21.6,2.5,29.98,NNW,327,11.4,15.4,43,0.00,,,0.00,WUHU216PEETBRO,2013-01-26 18:30:00,
2013-01-26 13:35:00,21.4,1.1,29.98,North,355,6.5,15.4,41,0.00,,,0.00,WUHU216PEETBRO,2013-01-26 18:35:00,
2013-01-26 13:40:00,21.2,0.7,29.98,NNW,338,9.4,13.5,41,0.00,,,0.00,WUHU216PEETBRO,2013-01-26 18:40:00,
2013-01-26 13:45:00,21.3,0.4,29.98,NW,324,4.1,16.3,40,0.00,,,0.00,WUHU216PEETBRO,2013-01-26 18:45:00,
2013-01-26 13:50:00,21.5,2.6,29.98,NNW,334,6.5,16.3,44,0.00,,,0.00,WUHU216PEETBRO,2013-01-26 18:50:00,
2013-01-26 13:55:00,21.9,3.3,29.98,NNW,345,9.1,15.4,44,0.00,,,0.00,WUHU216PEETBRO,2013-01-26 18:55:00,
2013-01-26 14:00:00,21.3,2.6,29.98,North,349,7.9,15.4,44,0.00,,,0.00,WUHU216PEETBRO,2013-01-26 19:00:00,
2013-01-26 14:05:00,21.3,2.5,29.99,NNW,335,8.4,15.8,44,0.00,,,0.00,WUHU216PEETBRO,2013-01-26 19:05:00,
2013-01-26 14:10:00,21.0,2.0,29.99,NW,309,2.1,20.5,43,0.00,,,0.00,WUHU216PEETBRO,2013-01-26 19:10:00,
2013-01-26 14:15:00,21.0,2.3,29.99,NW,324,14.3,20.5,44,0.00,,,0.00,WUHU216PEETBRO,2013-01-26 19:15:00,
2013-01-26 14:20:00,20.2,0.6,30.00,NNW,348,6.0,17.3,42,0.00,,,0.00,WUHU216PEETBRO,2013-01-26 19:20:00,
2013-01-26 14:25:00,21.1,2.1,30.00,NNW,328,7.9,17.1,43,0.00,,,0.00,WUHU216PEETBRO,2013-01-26 19:25:00,
2013-01-26 14:30:00,20.2,1.2,30.00,NNW,327,12.3,15.5,43,0.00,,,0.00,WUHU216PEETBRO,2013-01-26 19:30:00,
2013-01-26 14:35:00,21.4,1.7,30.01,NNW,337,1.6,15.5,42,0.00,,,0.00,WUHU216PEETBRO,2013-01-26 19:35:00,
2013-01-26 14:40:00,21.0,1.9,30.01,NNE,28,3.0,15.2,43,0.00,,,0.00,WUHU216PEETBRO,2013-01-26 19:40:00,
2013-01-26 14:45:00,20.6,2.2,30.00,North,354,6.0,14.9,45,0.00,,,0.00,WUHU216PEETBRO,2013-01-26 19:45:00,
2013-01-26 14:50:00,20.3,0.4,30.01,NNW,337,8.6,14.5,42,0.00,,,0.00,WUHU216PEETBRO,2013-01-26 19:50:00,
2013-01-26 14:55:00,20.7,1.7,30.01,North,349,9.7,16.5,43,0.00,,,0.00,WUHU216PEETBRO,2013-01-26 19:55:00,
2013-01-26 15:00:00,20.7,1.2,30.02,North,352,8.6,17.4,42,0.00,,,0.00,WUHU216PEETBRO,2013-01-26 20:00:00,
2013-01-26 15:05:00,20.8,1.2,30.02,NW,323,5.5,17.4,42,0.00,,,0.00,WUHU216PEETBRO,2013-01-26 20:05:00,
2013-01-26 15:10:00,20.6,2.0,30.02,North,2,4.0,20.1,44,0.00,,,0.00,WUHU216PEETBRO,2013-01-26 20:10:00,
2013-01-26 15:15:00,20.6,1.4,30.02,NNW,347,18.6,20.1,43,0.00,,,0.00,WUHU216PEETBRO,2013-01-26 20:15:00,
2013-01-26 15:20:00,19.9,1.3,30.02,NW,324,4.4,18.6,44,0.00,,,0.00,WUHU216PEETBRO,2013-01-26 20:20:00,
2013-01-26 15:25:00,20.6,1.2,30.03,NW,321,13.4,22.6,43,0.00,,,0.00,WUHU216PEETBRO,2013-01-26 20:25:00,
2013-01-26 15:30:00,20.0,1.4,30.03,NNW,327,5.0,22.6,44,0.00,,,0.00,WUHU216PEETBRO,2013-01-26 20:30:00,
2013-01-26 15:35:00,20.4,1.6,30.03,NNW,335,12.9,20.3,44,0.00,,,0.00,WUHU216PEETBRO,2013-01-26 20:35:00,
2013-01-26 15:40:00,19.5,0.6,30.03,NNW,340,4.9,21.4,43,0.00,,,0.00,WUHU216PEETBRO,2013-01-26 20:40:00,
2013-01-26 15:45:00,19.9,1.2,30.03,NNW,335,4.1,22.5,44,0.00,,,0.00,WUHU216PEETBRO,2013-01-26 20:45:00,
2013-01-26 15:50:00,19.8,1.1,30.03,North,349,5.5,25.9,44,0.00,,,0.00,WUHU216PEETBRO,2013-01-26 20:50:00,
2013-01-26 15:55:00,19.8,1.3,30.04,North,352,12.7,25.9,44,0.00,,,0.00,WUHU216PEETBRO,2013-01-26 20:55:00,
2013-01-26 16:00:00,19.9,0.9,30.04,North,1,11.4,23.2,43,0.00,,,0.00,WUHU216PEETBRO,2013-01-26 21:00:00,
2013-01-26 16:05:00,19.7,0.9,30.04,North,2,14.4,23.2,44,0.00,,,0.00,WUHU216PEETBRO,2013-01-26 21:05:00,
2013-01-26 16:10:00,19.1,0.3,30.04,NNW,347,8.6,19.4,43,0.00,,,0.00,WUHU216PEETBRO,2013-01-26 21:10:00,
2013-01-26 16:15:00,19.8,1.0,30.04,NNW,335,7.0,24.8,44,0.00,,,0.00,WUHU216PEETBRO,2013-01-26 21:15:00,
2013-01-26 16:20:00,19.6,1.0,30.04,NNW,340,9.3,24.8,44,0.00,,,0.00,WUHU216PEETBRO,2013-01-26 21:20:00,
2013-01-26 16:25:00,19.7,1.5,30.04,North,2,15.2,18.4,45,0.00,,,0.00,WUHU216PEETBRO,2013-01-26 21:25:00,
2013-01-26 16:30:00,19.6,1.4,30.05,NNW,334,11.6,16.3,45,0.00,,,0.00,WUHU216PEETBRO,2013-01-26 21:30:00,
2013-01-26 16:35:00,19.4,1.5,30.05,North,352,10.3,16.3,45,0.00,,,0.00,WUHU216PEETBRO,2013-01-26 21:35:00,
2013-01-26 16:40:00,19.0,0.8,30.05,NNW,337,9.4,18.5,45,0.00,,,0.00,WUHU216PEETBRO,2013-01-26 21:40:00,
2013-01-26 16:45:00,19.0,1.3,30.06,North,350,11.6,18.5,46,0.00,,,0.00,WUHU216PEETBRO,2013-01-26 21:45:00,
2013-01-26 16:50:00,19.0,1.5,30.06,NNW,335,20.1,20.9,46,0.00,,,0.00,WUHU216PEETBRO,2013-01-26 21:50:00,
2013-01-26 16:55:00,19.1,0.8,30.06,NNW,328,6.8,21.1,44,0.00,,,0.00,WUHU216PEETBRO,2013-01-26 21:55:00,
2013-01-26 17:01:00,18.6,0.7,30.06,North,349,7.3,21.2,45,0.00,,,0.00,WUHU216PEETBRO,2013-01-26 22:01:00,
2013-01-26 17:06:00,18.1,-0.3,30.07,North,351,14.4,24.2,44,0.00,,,0.00,WUHU216PEETBRO,2013-01-26 22:06:00,
2013-01-26 17:11:00,18.0,-0.3,30.07,NW,324,9.3,24.2,44,0.00,,,0.00,WUHU216PEETBRO,2013-01-26 22:11:00,
2013-01-26 17:16:00,18.3,0.2,30.07,NNW,330,8.8,17.7,45,0.00,,,0.00,WUHU216PEETBRO,2013-01-26 22:16:00,
2013-01-26 17:21:00,18.2,0.5,30.07,North,349,3.9,15.5,45,0.00,,,0.00,WUHU216PEETBRO,2013-01-26 22:21:00,
2013-01-26 17:26:00,17.5,-0.8,30.07,NNW,331,5.8,17.5,44,0.00,,,0.00,WUHU216PEETBRO,2013-01-26 22:26:00,
2013-01-26 17:31:00,18.2,0.1,30.07,North,359,8.7,17.6,45,0.00,,,0.00,WUHU216PEETBRO,2013-01-26 22:31:00,
2013-01-26 17:36:00,17.4,-0.6,30.07,NNW,328,8.5,20.9,45,0.00,,,0.00,WUHU216PEETBRO,2013-01-26 22:36:00,
2013-01-26 17:41:00,17.8,-0.4,30.07,North,349,7.0,20.9,44,0.00,,,0.00,WUHU216PEETBRO,2013-01-26 22:41:00,
2013-01-26 17:46:00,18.0,0.3,30.08,NNW,327,1.6,17.3,45,0.00,,,0.00,WUHU216PEETBRO,2013-01-26 22:46:00,
2013-01-26 17:51:00,17.9,0.3,30.07,North,351,4.6,16.0,46,0.00,,,0.00,WUHU216PEETBRO,2013-01-26 22:51:00,
2013-01-26 17:56:00,17.6,-0.1,30.08,NNE,25,9.4,17.8,45,0.00,,,0.00,WUHU216PEETBRO,2013-01-26 22:56:00,
2013-01-26 18:01:00,17.9,0.6,30.08,North,354,6.4,17.8,46,0.00,,,0.00,WUHU216PEETBRO,2013-01-26 23:01:00,
2013-01-26 18:06:00,17.8,0.6,30.08,NNW,347,4.2,16.5,47,0.00,,,0.00,WUHU216PEETBRO,2013-01-26 23:06:00,
2013-01-26 18:11:00,17.6,0.4,30.09,NNW,342,6.0,14.3,47,0.00,,,0.00,WUHU216PEETBRO,2013-01-26 23:11:00,
2013-01-26 18:16:00,16.9,-0.8,30.09,North,351,12.9,18.8,45,0.00,,,0.00,WUHU216PEETBRO,2013-01-26 23:16:00,
2013-01-26 18:21:00,17.6,0.1,30.09,North,349,7.5,18.8,46,0.00,,,0.00,WUHU216PEETBRO,2013-01-26 23:21:00,
2013-01-26 18:26:00,17.4,-0.3,30.09,NNW,344,9.4,18.7,45,0.00,,,0.00,WUHU216PEETBRO,2013-01-26 23:26:00,
2013-01-26 18:31:00,17.8,0.6,30.09,North,354,4.7,18.7,46,0.00,,,0.00,WUHU216PEETBRO,2013-01-26 23:31:00,
2013-01-26 18:36:00,16.3,-1.7,30.09,NW,309,4.8,20.3,45,0.00,,,0.00,WUHU216PEETBRO,2013-01-26 23:36:00,
2013-01-26 18:41:00,16.8,-1.5,30.10,NNW,338,3.8,20.3,44,0.00,,,0.00,WUHU216PEETBRO,2013-01-26 23:41:00,
2013-01-26 18:46:00,16.5,-1.5,30.10,North,351,8.5,19.9,45,0.00,,,0.00,WUHU216PEETBRO,2013-01-26 23:46:00,
2013-01-26 18:51:00,16.3,-2.3,30.10,North,6,9.4,19.9,43,0.00,,,0.00,WUHU216PEETBRO,2013-01-26 23:51:00,
2013-01-26 18:56:00,16.0,-2.4,30.10,North,349,6.3,21.1,44,0.00,,,0.00,WUHU216PEETBRO,2013-01-26 23:56:00,
2013-01-26 19:01:00,16.2,-2.1,30.11,North,350,3.6,21.4,44,0.00,,,0.00,WUHU216PEETBRO,2013-01-27 00:01:00,
2013-01-26 19:06:00,15.9,-1.6,30.11,NW,321,9.1,29.6,46,0.00,,,0.00,WUHU216PEETBRO,2013-01-27 00:06:00,
2013-01-26 19:11:00,15.3,-2.3,30.11,NNW,341,18.1,29.6,45,0.00,,,0.00,WUHU216PEETBRO,2013-01-27 00:11:00,
2013-01-26 19:17:00,15.2,-2.1,30.11,NNW,330,6.7,21.1,46,0.00,,,0.00,WUHU216PEETBRO,2013-01-27 00:17:00,
2013-01-26 19:22:00,15.3,-1.3,30.11,NNW,337,13.9,22.2,47,0.00,,,0.00,WUHU216PEETBRO,2013-01-27 00:22:00,
2013-01-26 19:27:00,15.1,-1.3,30.12,NNW,340,13.4,22.2,48,0.00,,,0.00,WUHU216PEETBRO,2013-01-27 00:27:00,
2013-01-26 19:32:00,14.7,-1.1,30.12,NNW,333,13.7,21.7,49,0.00,,,0.00,WUHU216PEETBRO,2013-01-27 00:32:00,
2013-01-26 19:37:00,14.7,-0.4,30.12,NNW,335,7.3,24.0,51,0.00,,,0.00,WUHU216PEETBRO,2013-01-27 00:37:00,
2013-01-26 19:42:00,14.2,-0.3,30.12,North,349,7.7,24.0,52,0.00,,,0.00,WUHU216PEETBRO,2013-01-27 00:42:00,
2013-01-26 19:47:00,14.3,0.1,30.13,North,351,10.0,22.2,53,0.00,,,0.00,WUHU216PEETBRO,2013-01-27 00:47:00,
2013-01-26 19:52:00,14.0,0.3,30.13,NNW,345,8.9,22.2,54,0.00,,,0.00,WUHU216PEETBRO,2013-01-27 00:52:00,
2013-01-26 19:57:00,13.1,0.1,30.13,NNW,340,9.4,21.7,56,0.00,,,0.00,WUHU216PEETBRO,2013-01-27 00:57:00,
2013-01-26 20:02:00,13.8,1.0,30.13,North,352,8.5,20.8,56,0.00,,,0.00,WUHU216PEETBRO,2013-01-27 01:02:00,
2013-01-26 20:07:00,13.6,1.1,30.13,NNW,341,6.3,18.8,57,0.00,,,0.00,WUHU216PEETBRO,2013-01-27 01:07:00,
2013-01-26 20:12:00,13.5,1.4,30.13,NNE,30,2.5,22.4,58,0.00,,,0.00,WUHU216PEETBRO,2013-01-27 01:12:00,
2013-01-26 20:17:00,13.7,2.0,30.13,North,349,7.3,22.4,59,0.00,,,0.00,WUHU216PEETBRO,2013-01-27 01:17:00,
2013-01-26 20:22:00,13.7,2.3,30.13,NW,321,8.6,21.9,60,0.00,,,0.00,WUHU216PEETBRO,2013-01-27 01:22:00,
2013-01-26 20:28:00,14.0,2.7,30.13,North,9,9.7,28.8,60,0.00,,,0.00,WUHU216PEETBRO,2013-01-27 01:28:00,
2013-01-26 20:33:00,13.4,2.3,30.13,NNW,334,15.2,28.8,61,0.00,,,0.00,WUHU216PEETBRO,2013-01-27 01:33:00,
2013-01-26 20:38:00,13.3,2.4,30.14,NW,324,5.7,23.7,61,0.00,,,0.00,WUHU216PEETBRO,2013-01-27 01:38:00,
2013-01-26 20:43:00,13.3,2.5,30.14,NNW,341,13.6,23.7,61,0.00,,,0.00,WUHU216PEETBRO,2013-01-27 01:43:00,
2013-01-26 20:48:00,12.9,2.3,30.13,NNW,335,7.7,20.8,62,0.00,,,0.00,WUHU216PEETBRO,2013-01-27 01:48:00,
2013-01-26 20:53:00,13.2,2.4,30.14,NW,323,13.1,17.1,61,0.00,,,0.00,WUHU216PEETBRO,2013-01-27 01:53:00,
2013-01-26 20:58:00,13.7,3.2,30.14,North,354,4.7,20.3,62,0.00,,,0.00,WUHU216PEETBRO,2013-01-27 01:58:00,
2013-01-26 21:03:00,12.7,2.4,30.14,NNW,335,5.8,20.3,63,0.00,,,0.00,WUHU216PEETBRO,2013-01-27 02:03:00,
2013-01-26 21:08:00,12.8,2.4,30.14,NNW,341,7.1,18.4,63,0.00,,,0.00,WUHU216PEETBRO,2013-01-27 02:08:00,
2013-01-26 21:13:00,13.1,3.0,30.13,NW,323,4.0,16.2,63,0.00,,,0.00,WUHU216PEETBRO,2013-01-27 02:13:00,
2013-01-26 21:18:00,13.1,3.1,30.13,NW,325,7.8,20.0,64,0.00,,,0.00,WUHU216PEETBRO,2013-01-27 02:18:00,
2013-01-26 21:23:00,12.7,2.9,30.13,NW,323,14.8,20.0,64,0.00,,,0.00,WUHU216PEETBRO,2013-01-27 02:23:00,
2013-01-26 21:28:00,12.8,3.3,30.13,NNW,330,6.4,16.2,65,0.00,,,0.00,WUHU216PEETBRO,2013-01-27 02:28:00,
2013-01-26 21:33:00,12.5,3.0,30.14,NNW,344,8.4,19.8,65,0.00,,,0.00,WUHU216PEETBRO,2013-01-27 02:33:00,
2013-01-26 21:38:00,13.0,3.5,30.14,NNW,333,13.7,19.8,65,0.00,,,0.00,WUHU216PEETBRO,2013-01-27 02:38:00,
2013-01-26 21:43:00,12.2,2.8,30.14,NW,316,7.7,16.2,65,0.00,,,0.00,WUHU216PEETBRO,2013-01-27 02:43:00,
2013-01-26 21:48:00,12.9,3.7,30.14,NW,321,6.0,18.5,66,0.00,,,0.00,WUHU216PEETBRO,2013-01-27 02:48:00,
2013-01-26 21:53:00,12.7,3.5,30.14,NNW,333,9.1,19.1,66,0.00,,,0.00,WUHU216PEETBRO,2013-01-27 02:53:00,
2013-01-26 21:58:00,12.9,3.9,30.14,North,2,2.9,19.1,67,0.00,,,0.00,WUHU216PEETBRO,2013-01-27 02:58:00,
2013-01-26 22:03:00,12.5,3.8,30.14,NW,317,7.0,17.3,67,0.00,,,0.00,WUHU216PEETBRO,2013-01-27 03:03:00,
2013-01-26 22:08:00,12.9,4.2,30.14,NNW,337,3.0,17.3,68,0.00,,,0.00,WUHU216PEETBRO,2013-01-27 03:08:00,
2013-01-26 22:13:00,12.9,4.0,30.15,NNW,348,13.4,18.1,67,0.00,,,0.00,WUHU216PEETBRO,2013-01-27 03:13:00,
2013-01-26 22:18:00,12.7,4.2,30.15,NW,323,4.0,18.1,68,0.00,,,0.00,WUHU216PEETBRO,2013-01-27 03:18:00,
2013-01-26 22:23:00,12.3,3.8,30.15,NNW,341,8.1,18.4,68,0.00,,,0.00,WUHU216PEETBRO,2013-01-27 03:23:00,
2013-01-26 22:28:00,12.6,4.4,30.15,NW,321,7.9,18.4,69,0.00,,,0.00,WUHU216PEETBRO,2013-01-27 03:28:00,
2013-01-26 22:33:00,12.6,4.2,30.15,NNW,327,4.3,16.5,68,0.00,,,0.00,WUHU216PEETBRO,2013-01-27 03:33:00,
2013-01-26 22:38:00,12.3,3.7,30.16,NNW,331,7.6,18.9,68,0.00,,,0.00,WUHU216PEETBRO,2013-01-27 03:38:00,
2013-01-26 22:43:00,12.9,4.4,30.16,North,350,7.4,18.9,68,0.00,,,0.00,WUHU216PEETBRO,2013-01-27 03:43:00,
2013-01-26 22:48:00,12.7,4.2,30.16,NNW,344,3.3,18.0,68,0.00,,,0.00,WUHU216PEETBRO,2013-01-27 03:48:00,
2013-01-26 22:53:00,13.0,4.5,30.17,NNW,327,13.8,17.8,68,0.00,,,0.00,WUHU216PEETBRO,2013-01-27 03:53:00,
2013-01-26 22:58:00,12.3,4.2,30.16,NNW,331,4.3,17.0,69,0.00,,,0.00,WUHU216PEETBRO,2013-01-27 03:58:00,
2013-01-26 23:03:00,12.5,4.6,30.16,NW,323,1.4,16.1,70,0.00,,,0.00,WUHU216PEETBRO,2013-01-27 04:03:00,
2013-01-26 23:08:00,12.6,4.8,30.16,North,357,6.4,15.2,70,0.00,,,0.00,WUHU216PEETBRO,2013-01-27 04:08:00,
2013-01-26 23:13:00,12.9,4.9,30.16,NNW,330,4.9,20.6,70,0.00,,,0.00,WUHU216PEETBRO,2013-01-27 04:13:00,
2013-01-26 23:18:00,12.3,4.5,30.17,NNW,345,12.1,20.6,70,0.00,,,0.00,WUHU216PEETBRO,2013-01-27 04:18:00,
2013-01-26 23:23:00,12.8,5.0,30.17,NW,324,6.8,17.0,70,0.00,,,0.00,WUHU216PEETBRO,2013-01-27 04:23:00,
2013-01-26 23:28:00,12.1,4.4,30.16,NNW,331,1.7,13.9,71,0.00,,,0.00,WUHU216PEETBRO,2013-01-27 04:28:00,
2013-01-26 23:33:00,12.4,5.0,30.16,North,351,7.7,16.3,72,0.00,,,0.00,WUHU216PEETBRO,2013-01-27 04:33:00,
2013-01-26 23:38:00,12.1,4.6,30.16,NNW,331,6.3,16.3,71,0.00,,,0.00,WUHU216PEETBRO,2013-01-27 04:38:00,
2013-01-26 23:43:00,12.6,5.1,30.16,North,351,8.9,16.9,71,0.00,,,0.00,WUHU216PEETBRO,2013-01-27 04:43:00,
2013-01-26 23:48:00,12.4,4.9,30.17,North,357,5.3,16.9,71,0.00,,,0.00,WUHU216PEETBRO,2013-01-27 04:48:00,
2013-01-26 23:53:00,12.2,4.6,30.16,NNW,335,3.2,15.3,71,0.00,,,0.00,WUHU216PEETBRO,2013-01-27 04:53:00,
2013-01-26 23:58:00,12.0,4.5,30.16,NW,325,4.0,15.3,71,0.00,,,0.00,WUHU216PEETBRO,2013-01-27 04:58:00,